sensor_id;sensor_type;location;lat;lon;timestamp;temperature;humidity
18189;DHT22;9219;50.396;8.546;2023-09-18T00:01:25;23.10;99.90
18189;DHT22;9219;50.396;8.546;2023-09-18T00:03:52;23.10;99.90
18189;DHT22;9219;50.396;8.546;2023-09-18T00:06:20;23.10;99.90
18189;DHT22;9219;50.396;8.546;2023-09-18T00:09:15;23.10;99.90
18189;DHT22;9219;50.396;8.546;2023-09-18T00:11:42;23.00;99.90
18189;DHT22;9219;50.396;8.546;2023-09-18T00:14:09;22.90;99.90
18189;DHT22;9219;50.396;8.546;2023-09-18T00:16:40;22.90;99.90
18189;DHT22;9219;50.396;8.546;2023-09-18T00:19:24;23.10;99.90
18189;DHT22;9219;50.396;8.546;2023-09-18T00:21:52;23.20;99.90
18189;DHT22;9219;50.396;8.546;2023-09-18T00:24:20;23.10;99.90
18189;DHT22;9219;50.396;8.546;2023-09-18T00:26:47;23.00;99.90
18189;DHT22;9219;50.396;8.546;2023-09-18T00:35:04;23.10;99.90
18189;DHT22;9219;50.396;8.546;2023-09-18T00:37:31;23.00;99.90
18189;DHT22;9219;50.396;8.546;2023-09-18T00:39:58;23.10;99.90
18189;DHT22;9219;50.396;8.546;2023-09-18T00:42:25;22.90;99.90
18189;DHT22;9219;50.396;8.546;2023-09-18T00:44:52;22.90;99.90
18189;DHT22;9219;50.396;8.546;2023-09-18T00:47:19;22.90;99.90
18189;DHT22;9219;50.396;8.546;2023-09-18T00:49:48;22.90;99.90
18189;DHT22;9219;50.396;8.546;2023-09-18T00:52:17;22.90;99.90
18189;DHT22;9219;50.396;8.546;2023-09-18T00:59:50;22.90;99.90
18189;DHT22;9219;50.396;8.546;2023-09-18T01:02:17;22.90;99.90
18189;DHT22;9219;50.396;8.546;2023-09-18T01:04:48;22.80;99.90
18189;DHT22;9219;50.396;8.546;2023-09-18T01:07:19;22.80;99.90
18189;DHT22;9219;50.396;8.546;2023-09-18T01:09:46;22.80;99.90
18189;DHT22;9219;50.396;8.546;2023-09-18T01:12:18;22.90;99.90
18189;DHT22;9219;50.396;8.546;2023-09-18T01:15:02;22.80;99.90
18189;DHT22;9219;50.396;8.546;2023-09-18T01:22:33;22.60;99.90
18189;DHT22;9219;50.396;8.546;2023-09-18T01:25:00;22.80;99.90
18189;DHT22;9219;50.396;8.546;2023-09-18T01:27:27;22.70;99.90
18189;DHT22;9219;50.396;8.546;2023-09-18T01:29:54;22.70;99.90
18189;DHT22;9219;50.396;8.546;2023-09-18T01:32:25;22.80;99.90
18189;DHT22;9219;50.396;8.546;2023-09-18T01:34:55;22.60;99.90
18189;DHT22;9219;50.396;8.546;2023-09-18T01:37:24;22.60;99.90
18189;DHT22;9219;50.396;8.546;2023-09-18T01:39:53;22.50;99.90
18189;DHT22;9219;50.396;8.546;2023-09-18T01:47:43;22.50;99.90
18189;DHT22;9219;50.396;8.546;2023-09-18T01:50:10;22.30;99.90
18189;DHT22;9219;50.396;8.546;2023-09-18T01:52:39;22.30;99.90
18189;DHT22;9219;50.396;8.546;2023-09-18T01:55:07;22.40;99.90
18189;DHT22;9219;50.396;8.546;2023-09-18T01:57:34;22.30;99.90
18189;DHT22;9219;50.396;8.546;2023-09-18T02:00:03;22.40;99.90
18189;DHT22;9219;50.396;8.546;2023-09-18T02:02:35;22.30;99.90
18189;DHT22;9219;50.396;8.546;2023-09-18T02:09:09;22.20;99.90
18189;DHT22;9219;50.396;8.546;2023-09-18T02:11:38;22.30;99.90
18189;DHT22;9219;50.396;8.546;2023-09-18T02:14:05;22.30;99.90
18189;DHT22;9219;50.396;8.546;2023-09-18T02:16:33;22.40;99.90
18189;DHT22;9219;50.396;8.546;2023-09-18T02:19:00;22.40;99.90
18189;DHT22;9219;50.396;8.546;2023-09-18T02:21:27;22.60;99.90
18189;DHT22;9219;50.396;8.546;2023-09-18T02:23:57;22.70;99.90
18189;DHT22;9219;50.396;8.546;2023-09-18T02:26:25;22.50;99.90
18189;DHT22;9219;50.396;8.546;2023-09-18T02:34:36;22.50;99.90
18189;DHT22;9219;50.396;8.546;2023-09-18T02:37:03;22.60;99.90
18189;DHT22;9219;50.396;8.546;2023-09-18T02:39:31;22.80;99.90
18189;DHT22;9219;50.396;8.546;2023-09-18T02:41:59;22.70;99.90
18189;DHT22;9219;50.396;8.546;2023-09-18T02:44:26;22.70;99.90
18189;DHT22;9219;50.396;8.546;2023-09-18T02:46:53;22.60;99.90
18189;DHT22;9219;50.396;8.546;2023-09-18T02:49:20;22.50;99.90
18189;DHT22;9219;50.396;8.546;2023-09-18T02:51:48;22.50;99.90
18189;DHT22;9219;50.396;8.546;2023-09-18T02:59:20;22.70;99.90
18189;DHT22;9219;50.396;8.546;2023-09-18T03:01:47;22.70;99.90
18189;DHT22;9219;50.396;8.546;2023-09-18T03:04:14;22.70;99.90
18189;DHT22;9219;50.396;8.546;2023-09-18T03:06:41;22.50;99.90
18189;DHT22;9219;50.396;8.546;2023-09-18T03:09:08;22.40;99.90
18189;DHT22;9219;50.396;8.546;2023-09-18T03:11:36;22.40;99.90
18189;DHT22;9219;50.396;8.546;2023-09-18T03:14:03;22.40;99.90
18189;DHT22;9219;50.396;8.546;2023-09-18T03:16:31;22.40;99.90
18189;DHT22;9219;50.396;8.546;2023-09-18T03:24:27;22.30;99.90
18189;DHT22;9219;50.396;8.546;2023-09-18T03:26:54;21.80;99.90
18189;DHT22;9219;50.396;8.546;2023-09-18T03:29:22;21.90;99.90
18189;DHT22;9219;50.396;8.546;2023-09-18T03:31:49;22.00;99.90
18189;DHT22;9219;50.396;8.546;2023-09-18T03:34:16;22.20;99.90
18189;DHT22;9219;50.396;8.546;2023-09-18T03:36:43;22.20;99.90
18189;DHT22;9219;50.396;8.546;2023-09-18T03:39:10;22.10;99.90
18189;DHT22;9219;50.396;8.546;2023-09-18T03:41:37;22.00;99.90
18189;DHT22;9219;50.396;8.546;2023-09-18T03:49:10;22.20;99.90
18189;DHT22;9219;50.396;8.546;2023-09-18T03:51:37;22.20;99.90
18189;DHT22;9219;50.396;8.546;2023-09-18T03:54:04;22.00;99.90
18189;DHT22;9219;50.396;8.546;2023-09-18T03:56:31;22.20;99.90
18189;DHT22;9219;50.396;8.546;2023-09-18T03:58:58;22.30;99.90
18189;DHT22;9219;50.396;8.546;2023-09-18T04:01:27;22.40;99.90
18189;DHT22;9219;50.396;8.546;2023-09-18T04:03:54;22.30;99.90
18189;DHT22;9219;50.396;8.546;2023-09-18T04:09:37;22.00;99.90
18189;DHT22;9219;50.396;8.546;2023-09-18T04:12:06;22.00;99.90
18189;DHT22;9219;50.396;8.546;2023-09-18T04:14:34;21.80;99.90
18189;DHT22;9219;50.396;8.546;2023-09-18T04:17:01;21.70;99.90
18189;DHT22;9219;50.396;8.546;2023-09-18T04:19:28;21.80;99.90
18189;DHT22;9219;50.396;8.546;2023-09-18T04:21:55;21.70;99.90
18189;DHT22;9219;50.396;8.546;2023-09-18T04:24:22;21.90;99.90
18189;DHT22;9219;50.396;8.546;2023-09-18T04:26:51;21.90;99.90
18189;DHT22;9219;50.396;8.546;2023-09-18T04:29:32;21.90;99.90
18189;DHT22;9219;50.396;8.546;2023-09-18T04:31:59;21.90;99.90
18189;DHT22;9219;50.396;8.546;2023-09-18T04:34:26;21.90;99.90
18189;DHT22;9219;50.396;8.546;2023-09-18T04:36:53;22.00;99.90
18189;DHT22;9219;50.396;8.546;2023-09-18T04:39:20;22.00;99.90
18189;DHT22;9219;50.396;8.546;2023-09-18T04:41:48;22.00;99.90
18189;DHT22;9219;50.396;8.546;2023-09-18T04:44:15;21.80;99.90
18189;DHT22;9219;50.396;8.546;2023-09-18T04:49:59;21.50;99.90
18189;DHT22;9219;50.396;8.546;2023-09-18T04:52:26;21.60;99.90
18189;DHT22;9219;50.396;8.546;2023-09-18T04:54:54;21.60;99.90
18189;DHT22;9219;50.396;8.546;2023-09-18T04:57:21;21.60;99.90
18189;DHT22;9219;50.396;8.546;2023-09-18T04:59:49;21.50;99.90
18189;DHT22;9219;50.396;8.546;2023-09-18T05:02:31;21.60;99.90
18189;DHT22;9219;50.396;8.546;2023-09-18T05:04:59;21.40;99.90
18189;DHT22;9219;50.396;8.546;2023-09-18T05:10:11;21.50;99.90
18189;DHT22;9219;50.396;8.546;2023-09-18T05:12:39;21.60;99.90
18189;DHT22;9219;50.396;8.546;2023-09-18T05:15:07;21.50;99.90
18189;DHT22;9219;50.396;8.546;2023-09-18T05:17:43;21.50;99.90
18189;DHT22;9219;50.396;8.546;2023-09-18T05:20:13;21.40;99.90
18189;DHT22;9219;50.396;8.546;2023-09-18T05:22:42;21.40;99.90
18189;DHT22;9219;50.396;8.546;2023-09-18T05:25:10;21.40;99.90
18189;DHT22;9219;50.396;8.546;2023-09-18T05:27:38;21.20;99.90
18189;DHT22;9219;50.396;8.546;2023-09-18T05:35:40;21.00;99.90
18189;DHT22;9219;50.396;8.546;2023-09-18T05:38:12;20.90;99.90
18189;DHT22;9219;50.396;8.546;2023-09-18T05:40:40;20.90;99.90
18189;DHT22;9219;50.396;8.546;2023-09-18T05:43:07;20.70;99.90
18189;DHT22;9219;50.396;8.546;2023-09-18T05:45:34;20.80;99.90
18189;DHT22;9219;50.396;8.546;2023-09-18T05:48:01;20.70;99.90
18189;DHT22;9219;50.396;8.546;2023-09-18T05:50:31;20.80;99.90
18189;DHT22;9219;50.396;8.546;2023-09-18T05:58:03;20.90;99.90
18189;DHT22;9219;50.396;8.546;2023-09-18T06:00:33;20.80;99.90
18189;DHT22;9219;50.396;8.546;2023-09-18T06:03:01;20.90;99.90
18189;DHT22;9219;50.396;8.546;2023-09-18T06:05:28;21.00;99.90
18189;DHT22;9219;50.396;8.546;2023-09-18T06:07:57;21.10;99.90
18189;DHT22;9219;50.396;8.546;2023-09-18T06:10:25;21.10;99.90
18189;DHT22;9219;50.396;8.546;2023-09-18T06:12:52;21.30;99.90
18189;DHT22;9219;50.396;8.546;2023-09-18T06:18:45;21.20;99.90
18189;DHT22;9219;50.396;8.546;2023-09-18T06:21:13;21.20;99.90
18189;DHT22;9219;50.396;8.546;2023-09-18T06:23:39;21.30;99.90
18189;DHT22;9219;50.396;8.546;2023-09-18T06:26:07;21.40;99.90
18189;DHT22;9219;50.396;8.546;2023-09-18T06:28:34;21.30;99.90
18189;DHT22;9219;50.396;8.546;2023-09-18T06:31:01;21.30;99.90
18189;DHT22;9219;50.396;8.546;2023-09-18T06:33:28;21.20;99.90
18189;DHT22;9219;50.396;8.546;2023-09-18T06:38:57;21.10;99.90
18189;DHT22;9219;50.396;8.546;2023-09-18T06:41:24;21.10;99.90
18189;DHT22;9219;50.396;8.546;2023-09-18T06:43:52;21.20;99.90
18189;DHT22;9219;50.396;8.546;2023-09-18T06:46:19;21.20;99.90
18189;DHT22;9219;50.396;8.546;2023-09-18T06:48:49;21.10;99.90
18189;DHT22;9219;50.396;8.546;2023-09-18T06:51:18;21.10;99.90
18189;DHT22;9219;50.396;8.546;2023-09-18T06:54:04;21.10;99.90
18189;DHT22;9219;50.396;8.546;2023-09-18T06:59:54;21.10;99.90
18189;DHT22;9219;50.396;8.546;2023-09-18T07:02:22;21.20;99.90
18189;DHT22;9219;50.396;8.546;2023-09-18T07:04:49;21.10;99.90
18189;DHT22;9219;50.396;8.546;2023-09-18T07:07:18;21.10;99.90
18189;DHT22;9219;50.396;8.546;2023-09-18T07:09:51;21.30;99.90
18189;DHT22;9219;50.396;8.546;2023-09-18T07:12:31;21.30;99.90
18189;DHT22;9219;50.396;8.546;2023-09-18T07:15:00;21.20;99.90
18189;DHT22;9219;50.396;8.546;2023-09-18T07:17:31;21.30;99.90
18189;DHT22;9219;50.396;8.546;2023-09-18T07:25:57;21.30;99.90
18189;DHT22;9219;50.396;8.546;2023-09-18T07:28:28;21.20;99.90
18189;DHT22;9219;50.396;8.546;2023-09-18T07:30:57;21.00;99.90
18189;DHT22;9219;50.396;8.546;2023-09-18T07:33:29;21.00;99.90
18189;DHT22;9219;50.396;8.546;2023-09-18T07:35:57;21.20;99.90
18189;DHT22;9219;50.396;8.546;2023-09-18T07:38:24;21.10;99.90
18189;DHT22;9219;50.396;8.546;2023-09-18T07:40:53;21.20;99.90
18189;DHT22;9219;50.396;8.546;2023-09-18T07:48:28;21.20;99.90
18189;DHT22;9219;50.396;8.546;2023-09-18T07:51:05;21.50;99.90
18189;DHT22;9219;50.396;8.546;2023-09-18T07:53:32;21.50;99.90
18189;DHT22;9219;50.396;8.546;2023-09-18T07:55:59;21.40;99.90
18189;DHT22;9219;50.396;8.546;2023-09-18T07:58:31;21.40;99.90
18189;DHT22;9219;50.396;8.546;2023-09-18T08:00:59;21.30;99.90
18189;DHT22;9219;50.396;8.546;2023-09-18T08:03:26;21.40;99.90
18189;DHT22;9219;50.396;8.546;2023-09-18T08:11:06;21.20;99.90
18189;DHT22;9219;50.396;8.546;2023-09-18T08:13:34;21.20;99.90
18189;DHT22;9219;50.396;8.546;2023-09-18T08:16:01;21.30;99.90
18189;DHT22;9219;50.396;8.546;2023-09-18T08:18:30;21.40;99.90
18189;DHT22;9219;50.396;8.546;2023-09-18T08:20:57;21.70;99.90
18189;DHT22;9219;50.396;8.546;2023-09-18T08:23:24;21.40;99.90
18189;DHT22;9219;50.396;8.546;2023-09-18T08:25:51;21.30;99.90
18189;DHT22;9219;50.396;8.546;2023-09-18T08:31:03;21.40;99.90
18189;DHT22;9219;50.396;8.546;2023-09-18T08:33:35;21.60;99.90
18189;DHT22;9219;50.396;8.546;2023-09-18T08:36:02;21.70;99.90
18189;DHT22;9219;50.396;8.546;2023-09-18T08:38:29;21.60;99.90
18189;DHT22;9219;50.396;8.546;2023-09-18T08:40:57;21.70;99.90
18189;DHT22;9219;50.396;8.546;2023-09-18T08:43:24;21.90;99.90
18189;DHT22;9219;50.396;8.546;2023-09-18T08:45:53;21.90;99.90
18189;DHT22;9219;50.396;8.546;2023-09-18T08:51:01;22.00;99.90
18189;DHT22;9219;50.396;8.546;2023-09-18T08:53:29;22.00;99.90
18189;DHT22;9219;50.396;8.546;2023-09-18T08:55:58;22.00;99.90
18189;DHT22;9219;50.396;8.546;2023-09-18T08:58:29;21.90;99.90
18189;DHT22;9219;50.396;8.546;2023-09-18T09:00:58;21.90;99.90
18189;DHT22;9219;50.396;8.546;2023-09-18T09:03:27;21.90;99.90
18189;DHT22;9219;50.396;8.546;2023-09-18T09:05:54;21.80;99.90
18189;DHT22;9219;50.396;8.546;2023-09-18T09:08:22;21.80;99.90
18189;DHT22;9219;50.396;8.546;2023-09-18T09:15:55;22.00;99.90
18189;DHT22;9219;50.396;8.546;2023-09-18T09:18:24;22.30;99.90
18189;DHT22;9219;50.396;8.546;2023-09-18T09:20:56;22.30;99.90
18189;DHT22;9219;50.396;8.546;2023-09-18T09:23:25;22.10;99.90
18189;DHT22;9219;50.396;8.546;2023-09-18T09:25:52;22.20;99.90
18189;DHT22;9219;50.396;8.546;2023-09-18T09:28:29;22.30;99.90
18189;DHT22;9219;50.396;8.546;2023-09-18T09:31:01;22.40;99.90
18189;DHT22;9219;50.396;8.546;2023-09-18T09:40:59;22.40;99.90
18189;DHT22;9219;50.396;8.546;2023-09-18T09:43:33;22.50;99.90
18189;DHT22;9219;50.396;8.546;2023-09-18T09:46:01;22.40;99.90
18189;DHT22;9219;50.396;8.546;2023-09-18T09:48:29;22.40;99.90
18189;DHT22;9219;50.396;8.546;2023-09-18T09:50:59;22.40;99.90
18189;DHT22;9219;50.396;8.546;2023-09-18T09:53:43;22.40;99.90
18189;DHT22;9219;50.396;8.546;2023-09-18T09:56:12;22.50;99.90
18189;DHT22;9219;50.396;8.546;2023-09-18T09:58:40;22.30;99.90
18189;DHT22;9219;50.396;8.546;2023-09-18T10:06:27;22.30;99.90
18189;DHT22;9219;50.396;8.546;2023-09-18T10:08:56;22.50;99.90
18189;DHT22;9219;50.396;8.546;2023-09-18T10:11:26;22.50;99.90
18189;DHT22;9219;50.396;8.546;2023-09-18T10:13:59;22.40;99.90
18189;DHT22;9219;50.396;8.546;2023-09-18T10:16:30;22.30;99.90
18189;DHT22;9219;50.396;8.546;2023-09-18T10:19:08;22.40;99.90
18189;DHT22;9219;50.396;8.546;2023-09-18T10:21:43;22.40;99.90
18189;DHT22;9219;50.396;8.546;2023-09-18T10:29:23;22.50;99.90
18189;DHT22;9219;50.396;8.546;2023-09-18T10:31:52;22.20;99.90
18189;DHT22;9219;50.396;8.546;2023-09-18T10:34:22;22.00;99.90
18189;DHT22;9219;50.396;8.546;2023-09-18T10:36:52;21.70;99.90
18189;DHT22;9219;50.396;8.546;2023-09-18T10:39:21;21.90;99.90
18189;DHT22;9219;50.396;8.546;2023-09-18T10:41:52;22.10;99.90
18189;DHT22;9219;50.396;8.546;2023-09-18T10:44:21;22.20;99.90
18189;DHT22;9219;50.396;8.546;2023-09-18T10:46:52;22.00;99.90
18189;DHT22;9219;50.396;8.546;2023-09-18T10:49:35;22.10;99.90
18189;DHT22;9219;50.396;8.546;2023-09-18T10:52:11;22.20;99.90
18189;DHT22;9219;50.396;8.546;2023-09-18T10:54:40;22.20;99.90
18189;DHT22;9219;50.396;8.546;2023-09-18T10:57:08;22.20;99.90
18189;DHT22;9219;50.396;8.546;2023-09-18T10:59:43;22.30;99.90
18189;DHT22;9219;50.396;8.546;2023-09-18T11:02:14;22.20;99.90
18189;DHT22;9219;50.396;8.546;2023-09-18T11:04:45;22.20;99.90
18189;DHT22;9219;50.396;8.546;2023-09-18T11:12:49;22.30;99.90
18189;DHT22;9219;50.396;8.546;2023-09-18T11:15:38;22.40;99.90
18189;DHT22;9219;50.396;8.546;2023-09-18T11:18:10;22.60;99.90
18189;DHT22;9219;50.396;8.546;2023-09-18T11:20:39;22.70;99.90
18189;DHT22;9219;50.396;8.546;2023-09-18T11:23:16;22.80;99.90
18189;DHT22;9219;50.396;8.546;2023-09-18T11:25:45;22.90;99.90
18189;DHT22;9219;50.396;8.546;2023-09-18T11:28:25;22.70;99.90
18189;DHT22;9219;50.396;8.546;2023-09-18T11:34:42;22.50;99.90
18189;DHT22;9219;50.396;8.546;2023-09-18T11:37:20;22.60;99.90
18189;DHT22;9219;50.396;8.546;2023-09-18T11:39:50;22.70;99.90
18189;DHT22;9219;50.396;8.546;2023-09-18T11:42:18;22.80;99.90
18189;DHT22;9219;50.396;8.546;2023-09-18T11:44:49;22.80;99.90
18189;DHT22;9219;50.396;8.546;2023-09-18T11:47:24;22.60;99.90
18189;DHT22;9219;50.396;8.546;2023-09-18T11:50:11;22.90;99.90
18189;DHT22;9219;50.396;8.546;2023-09-18T11:58:10;22.90;99.90
18189;DHT22;9219;50.396;8.546;2023-09-18T12:00:41;22.80;99.90
18189;DHT22;9219;50.396;8.546;2023-09-18T12:03:16;22.70;99.90
18189;DHT22;9219;50.396;8.546;2023-09-18T12:05:56;22.60;99.90
18189;DHT22;9219;50.396;8.546;2023-09-18T12:08:24;23.00;99.90
18189;DHT22;9219;50.396;8.546;2023-09-18T12:10:53;22.80;99.90
18189;DHT22;9219;50.396;8.546;2023-09-18T12:13:23;22.70;99.90
18189;DHT22;9219;50.396;8.546;2023-09-18T12:20:56;22.90;99.90
18189;DHT22;9219;50.396;8.546;2023-09-18T12:23:25;23.00;99.90
18189;DHT22;9219;50.396;8.546;2023-09-18T12:25:59;23.20;99.90
18189;DHT22;9219;50.396;8.546;2023-09-18T12:28:26;23.00;99.90
18189;DHT22;9219;50.396;8.546;2023-09-18T12:30:56;23.00;99.90
18189;DHT22;9219;50.396;8.546;2023-09-18T12:33:25;22.90;99.90
18189;DHT22;9219;50.396;8.546;2023-09-18T12:35:56;23.00;99.90
18189;DHT22;9219;50.396;8.546;2023-09-18T12:38:24;23.00;99.90
18189;DHT22;9219;50.396;8.546;2023-09-18T12:42:57;23.10;99.90
18189;DHT22;9219;50.396;8.546;2023-09-18T12:45:29;23.30;99.90
18189;DHT22;9219;50.396;8.546;2023-09-18T12:47:57;23.40;99.90
18189;DHT22;9219;50.396;8.546;2023-09-18T12:50:26;23.50;99.90
18189;DHT22;9219;50.396;8.546;2023-09-18T12:55:36;23.60;99.90
18189;DHT22;9219;50.396;8.546;2023-09-18T12:58:05;23.60;99.90
18189;DHT22;9219;50.396;8.546;2023-09-18T13:05:39;23.30;99.90
18189;DHT22;9219;50.396;8.546;2023-09-18T13:08:07;23.60;99.90
18189;DHT22;9219;50.396;8.546;2023-09-18T13:10:44;23.60;99.90
18189;DHT22;9219;50.396;8.546;2023-09-18T13:13:18;23.50;99.90
18189;DHT22;9219;50.396;8.546;2023-09-18T13:15:46;23.50;99.90
18189;DHT22;9219;50.396;8.546;2023-09-18T13:18:14;23.30;99.90
18189;DHT22;9219;50.396;8.546;2023-09-18T13:20:43;23.10;99.90
18189;DHT22;9219;50.396;8.546;2023-09-18T13:23:11;23.20;99.90
18189;DHT22;9219;50.396;8.546;2023-09-18T13:30:09;23.40;99.90
18189;DHT22;9219;50.396;8.546;2023-09-18T13:32:36;23.00;99.90
18189;DHT22;9219;50.396;8.546;2023-09-18T13:35:07;22.90;99.90
18189;DHT22;9219;50.396;8.546;2023-09-18T13:37:35;23.00;99.90
18189;DHT22;9219;50.396;8.546;2023-09-18T13:40:04;23.00;99.90
18189;DHT22;9219;50.396;8.546;2023-09-18T13:42:35;23.20;99.90
18189;DHT22;9219;50.396;8.546;2023-09-18T13:45:04;23.20;99.90
18189;DHT22;9219;50.396;8.546;2023-09-18T13:47:34;23.50;99.90
18189;DHT22;9219;50.396;8.546;2023-09-18T13:55:08;23.60;99.90
18189;DHT22;9219;50.396;8.546;2023-09-18T13:57:39;23.20;99.90
18189;DHT22;9219;50.396;8.546;2023-09-18T14:00:08;23.10;99.90
18189;DHT22;9219;50.396;8.546;2023-09-18T14:02:38;23.00;99.90
18189;DHT22;9219;50.396;8.546;2023-09-18T14:05:07;22.90;99.90
18189;DHT22;9219;50.396;8.546;2023-09-18T14:07:34;22.90;99.90
18189;DHT22;9219;50.396;8.546;2023-09-18T14:10:02;22.90;99.90
18189;DHT22;9219;50.396;8.546;2023-09-18T14:17:34;23.10;99.90
18189;DHT22;9219;50.396;8.546;2023-09-18T14:20:03;23.00;99.90
18189;DHT22;9219;50.396;8.546;2023-09-18T14:22:33;23.10;99.90
18189;DHT22;9219;50.396;8.546;2023-09-18T14:25:00;23.20;99.90
18189;DHT22;9219;50.396;8.546;2023-09-18T14:27:30;23.20;99.90
18189;DHT22;9219;50.396;8.546;2023-09-18T14:29:57;23.10;99.90
18189;DHT22;9219;50.396;8.546;2023-09-18T14:32:25;23.10;99.90
18189;DHT22;9219;50.396;8.546;2023-09-18T14:38:03;23.10;99.90
18189;DHT22;9219;50.396;8.546;2023-09-18T14:40:32;23.40;99.90
18189;DHT22;9219;50.396;8.546;2023-09-18T14:42:59;23.30;99.90
18189;DHT22;9219;50.396;8.546;2023-09-18T14:45:31;23.10;99.90
18189;DHT22;9219;50.396;8.546;2023-09-18T14:47:59;23.10;99.90
18189;DHT22;9219;50.396;8.546;2023-09-18T14:50:30;23.30;99.90
18189;DHT22;9219;50.396;8.546;2023-09-18T14:53:02;23.40;99.90
18189;DHT22;9219;50.396;8.546;2023-09-18T15:00:26;23.20;99.90
18189;DHT22;9219;50.396;8.546;2023-09-18T15:02:53;23.50;99.90
18189;DHT22;9219;50.396;8.546;2023-09-18T15:05:21;23.50;99.90
18189;DHT22;9219;50.396;8.546;2023-09-18T15:07:49;23.50;99.90
18189;DHT22;9219;50.396;8.546;2023-09-18T15:10:16;23.40;99.90
18189;DHT22;9219;50.396;8.546;2023-09-18T15:12:44;23.40;99.90
18189;DHT22;9219;50.396;8.546;2023-09-18T15:15:11;23.50;99.90
18189;DHT22;9219;50.396;8.546;2023-09-18T15:20:18;23.40;99.90
18189;DHT22;9219;50.396;8.546;2023-09-18T15:22:50;23.30;99.90
18189;DHT22;9219;50.396;8.546;2023-09-18T15:25:17;23.60;99.90
18189;DHT22;9219;50.396;8.546;2023-09-18T15:27:46;23.60;99.90
18189;DHT22;9219;50.396;8.546;2023-09-18T15:30:13;23.60;99.90
18189;DHT22;9219;50.396;8.546;2023-09-18T15:32:49;23.70;99.90
18189;DHT22;9219;50.396;8.546;2023-09-18T15:35:19;23.60;99.90
18189;DHT22;9219;50.396;8.546;2023-09-18T15:40:31;23.60;99.90
18189;DHT22;9219;50.396;8.546;2023-09-18T15:43:01;23.60;99.90
18189;DHT22;9219;50.396;8.546;2023-09-18T15:45:28;23.70;99.90
18189;DHT22;9219;50.396;8.546;2023-09-18T15:47:56;23.70;99.90
18189;DHT22;9219;50.396;8.546;2023-09-18T15:50:24;23.80;99.90
18189;DHT22;9219;50.396;8.546;2023-09-18T15:52:52;23.90;99.90
18189;DHT22;9219;50.396;8.546;2023-09-18T15:55:19;23.90;99.90
18189;DHT22;9219;50.396;8.546;2023-09-18T15:57:48;23.50;99.90
18189;DHT22;9219;50.396;8.546;2023-09-18T16:05:34;23.40;99.90
18189;DHT22;9219;50.396;8.546;2023-09-18T16:08:02;23.40;99.90
18189;DHT22;9219;50.396;8.546;2023-09-18T16:10:32;23.50;99.90
18189;DHT22;9219;50.396;8.546;2023-09-18T16:13:00;23.40;99.90
18189;DHT22;9219;50.396;8.546;2023-09-18T16:15:27;23.60;99.90
18189;DHT22;9219;50.396;8.546;2023-09-18T16:17:57;23.40;99.90
18189;DHT22;9219;50.396;8.546;2023-09-18T16:20:25;23.50;99.90
18189;DHT22;9219;50.396;8.546;2023-09-18T16:22:55;23.40;99.90
18189;DHT22;9219;50.396;8.546;2023-09-18T16:30:51;23.40;99.90
18189;DHT22;9219;50.396;8.546;2023-09-18T16:33:19;23.20;99.90
18189;DHT22;9219;50.396;8.546;2023-09-18T16:35:46;23.10;99.90
18189;DHT22;9219;50.396;8.546;2023-09-18T16:38:15;23.10;99.90
18189;DHT22;9219;50.396;8.546;2023-09-18T16:40:43;23.10;99.90
18189;DHT22;9219;50.396;8.546;2023-09-18T16:43:11;23.10;99.90
18189;DHT22;9219;50.396;8.546;2023-09-18T16:45:38;22.80;99.90
18189;DHT22;9219;50.396;8.546;2023-09-18T16:48:10;22.70;99.90
18189;DHT22;9219;50.396;8.546;2023-09-18T16:56:49;22.80;99.90
18189;DHT22;9219;50.396;8.546;2023-09-18T16:59:17;22.80;99.90
18189;DHT22;9219;50.396;8.546;2023-09-18T17:01:46;22.80;99.90
18189;DHT22;9219;50.396;8.546;2023-09-18T17:04:13;22.70;99.90
18189;DHT22;9219;50.396;8.546;2023-09-18T17:06:41;22.50;99.90
18189;DHT22;9219;50.396;8.546;2023-09-18T17:09:09;22.20;99.90
18189;DHT22;9219;50.396;8.546;2023-09-18T17:11:38;22.20;99.90
18189;DHT22;9219;50.396;8.546;2023-09-18T17:14:06;22.20;99.90
18189;DHT22;9219;50.396;8.546;2023-09-18T17:16:51;22.30;99.90
18189;DHT22;9219;50.396;8.546;2023-09-18T17:19:21;22.30;99.90
18189;DHT22;9219;50.396;8.546;2023-09-18T17:21:49;22.40;99.90
18189;DHT22;9219;50.396;8.546;2023-09-18T17:24:16;22.30;99.90
18189;DHT22;9219;50.396;8.546;2023-09-18T17:26:46;22.20;99.90
18189;DHT22;9219;50.396;8.546;2023-09-18T17:29:14;22.10;99.90
18189;DHT22;9219;50.396;8.546;2023-09-18T17:31:42;22.20;99.90
18189;DHT22;9219;50.396;8.546;2023-09-18T17:39:16;21.80;99.90
18189;DHT22;9219;50.396;8.546;2023-09-18T17:41:43;21.80;99.90
18189;DHT22;9219;50.396;8.546;2023-09-18T17:44:10;21.80;99.90
18189;DHT22;9219;50.396;8.546;2023-09-18T17:46:38;21.70;99.90
18189;DHT22;9219;50.396;8.546;2023-09-18T17:49:06;21.90;99.90
18189;DHT22;9219;50.396;8.546;2023-09-18T17:51:34;21.80;99.90
18189;DHT22;9219;50.396;8.546;2023-09-18T17:54:02;22.00;99.90
18189;DHT22;9219;50.396;8.546;2023-09-18T17:59:11;22.00;99.90
18189;DHT22;9219;50.396;8.546;2023-09-18T18:01:39;22.00;99.90
18189;DHT22;9219;50.396;8.546;2023-09-18T18:04:06;21.90;99.90
18189;DHT22;9219;50.396;8.546;2023-09-18T18:06:34;21.90;99.90
18189;DHT22;9219;50.396;8.546;2023-09-18T18:09:02;21.90;99.90
18189;DHT22;9219;50.396;8.546;2023-09-18T18:11:31;21.80;99.90
18189;DHT22;9219;50.396;8.546;2023-09-18T18:13:59;21.70;99.90
18189;DHT22;9219;50.396;8.546;2023-09-18T18:19:10;21.70;99.90
18189;DHT22;9219;50.396;8.546;2023-09-18T18:21:47;21.90;99.90
18189;DHT22;9219;50.396;8.546;2023-09-18T18:24:16;21.90;99.90
18189;DHT22;9219;50.396;8.546;2023-09-18T18:26:44;21.90;99.90
18189;DHT22;9219;50.396;8.546;2023-09-18T18:29:13;21.70;99.90
18189;DHT22;9219;50.396;8.546;2023-09-18T18:31:43;21.50;99.90
18189;DHT22;9219;50.396;8.546;2023-09-18T18:34:14;21.50;99.90
18189;DHT22;9219;50.396;8.546;2023-09-18T18:40:38;21.60;99.90
18189;DHT22;9219;50.396;8.546;2023-09-18T18:43:11;21.50;99.90
18189;DHT22;9219;50.396;8.546;2023-09-18T18:45:43;21.40;99.90
18189;DHT22;9219;50.396;8.546;2023-09-18T18:48:12;21.50;99.90
18189;DHT22;9219;50.396;8.546;2023-09-18T18:50:40;21.50;99.90
18189;DHT22;9219;50.396;8.546;2023-09-18T18:53:08;21.50;99.90
18189;DHT22;9219;50.396;8.546;2023-09-18T18:55:37;21.50;99.90
18189;DHT22;9219;50.396;8.546;2023-09-18T19:01:21;21.40;99.90
18189;DHT22;9219;50.396;8.546;2023-09-18T19:03:53;21.20;99.90
18189;DHT22;9219;50.396;8.546;2023-09-18T19:06:23;21.30;99.90
18189;DHT22;9219;50.396;8.546;2023-09-18T19:08:51;21.20;99.90
18189;DHT22;9219;50.396;8.546;2023-09-18T19:11:21;21.10;99.90
18189;DHT22;9219;50.396;8.546;2023-09-18T19:13:50;21.10;99.90
18189;DHT22;9219;50.396;8.546;2023-09-18T19:16:21;21.30;99.90
18189;DHT22;9219;50.396;8.546;2023-09-18T19:21:32;21.30;99.90
18189;DHT22;9219;50.396;8.546;2023-09-18T19:24:04;21.20;99.90
18189;DHT22;9219;50.396;8.546;2023-09-18T19:26:35;21.20;99.90
18189;DHT22;9219;50.396;8.546;2023-09-18T19:29:05;21.10;99.90
18189;DHT22;9219;50.396;8.546;2023-09-18T19:31:33;21.10;99.90
18189;DHT22;9219;50.396;8.546;2023-09-18T19:34:03;21.10;99.90